sensor_id;sensor_type;location;lat;lon;timestamp;temperature;humidity
64599;SHT31;51008;51.504;11.548;2022-12-10T00:02:19;-0.39;99.99
64599;SHT31;51008;51.504;11.548;2022-12-10T00:07:20;-0.46;99.99
64599;SHT31;51008;51.504;11.548;2022-12-10T00:12:21;-0.42;99.99
64599;SHT31;51008;51.504;11.548;2022-12-10T00:17:22;-0.39;99.99
64599;SHT31;51008;51.504;11.548;2022-12-10T00:22:23;-0.43;99.99
64599;SHT31;51008;51.504;11.548;2022-12-10T00:27:24;-0.43;99.99
64599;SHT31;51008;51.504;11.548;2022-12-10T00:32:25;-0.52;99.99
64599;SHT31;51008;51.504;11.548;2022-12-10T00:37:26;-0.52;99.99
64599;SHT31;51008;51.504;11.548;2022-12-10T00:42:27;-0.57;99.99
64599;SHT31;51008;51.504;11.548;2022-12-10T00:47:28;-0.55;99.99
64599;SHT31;51008;51.504;11.548;2022-12-10T00:52:29;-0.62;99.99
64599;SHT31;51008;51.504;11.548;2022-12-10T00:57:32;-0.63;99.99
64599;SHT31;51008;51.504;11.548;2022-12-10T01:02:33;-0.67;99.99
64599;SHT31;51008;51.504;11.548;2022-12-10T01:07:34;-0.60;99.99
64599;SHT31;51008;51.504;11.548;2022-12-10T01:12:35;-0.56;99.99
64599;SHT31;51008;51.504;11.548;2022-12-10T01:17:36;-0.57;99.99
64599;SHT31;51008;51.504;11.548;2022-12-10T01:22:38;-0.57;99.99
64599;SHT31;51008;51.504;11.548;2022-12-10T01:27:39;-0.62;99.99
64599;SHT31;51008;51.504;11.548;2022-12-10T01:32:40;-0.59;99.99
64599;SHT31;51008;51.504;11.548;2022-12-10T01:37:41;-0.55;99.99
64599;SHT31;51008;51.504;11.548;2022-12-10T01:42:42;-0.50;99.99
64599;SHT31;51008;51.504;11.548;2022-12-10T01:47:43;-0.53;99.99
64599;SHT31;51008;51.504;11.548;2022-12-10T01:52:45;-0.56;99.99
64599;SHT31;51008;51.504;11.548;2022-12-10T01:57:46;-0.59;99.99
64599;SHT31;51008;51.504;11.548;2022-12-10T02:03:13;-0.69;99.99
64599;SHT31;51008;51.504;11.548;2022-12-10T02:08:41;-0.65;99.99
64599;SHT31;51008;51.504;11.548;2022-12-10T02:14:12;-0.67;99.99
64599;SHT31;51008;51.504;11.548;2022-12-10T02:19:39;-0.80;99.99
64599;SHT31;51008;51.504;11.548;2022-12-10T02:24:47;-0.90;99.99
64599;SHT31;51008;51.504;11.548;2022-12-10T02:29:52;-0.91;99.99
64599;SHT31;51008;51.504;11.548;2022-12-10T02:34:58;-0.95;99.99
64599;SHT31;51008;51.504;11.548;2022-12-10T02:40:11;-1.00;99.99
64599;SHT31;51008;51.504;11.548;2022-12-10T02:45:18;-1.02;99.99
64599;SHT31;51008;51.504;11.548;2022-12-10T02:50:21;-1.07;99.99
64599;SHT31;51008;51.504;11.548;2022-12-10T02:55:24;-1.08;99.99
64599;SHT31;51008;51.504;11.548;2022-12-10T03:00:29;-1.08;99.99
64599;SHT31;51008;51.504;11.548;2022-12-10T03:05:48;-1.11;99.99
64599;SHT31;51008;51.504;11.548;2022-12-10T03:11:01;-1.11;99.99
64599;SHT31;51008;51.504;11.548;2022-12-10T03:16:05;-1.09;99.99
64599;SHT31;51008;51.504;11.548;2022-12-10T03:21:07;-1.13;99.99
64599;SHT31;51008;51.504;11.548;2022-12-10T03:26:09;-1.12;99.99
64599;SHT31;51008;51.504;11.548;2022-12-10T03:31:12;-1.08;99.99
64599;SHT31;51008;51.504;11.548;2022-12-10T03:36:15;-1.08;99.99
64599;SHT31;51008;51.504;11.548;2022-12-10T03:41:17;-1.05;99.99
64599;SHT31;51008;51.504;11.548;2022-12-10T03:46:18;-1.12;99.99
64599;SHT31;51008;51.504;11.548;2022-12-10T03:51:19;-1.05;99.99
64599;SHT31;51008;51.504;11.548;2022-12-10T03:56:21;-1.00;99.99
64599;SHT31;51008;51.504;11.548;2022-12-10T04:01:22;-1.02;99.99
64599;SHT31;51008;51.504;11.548;2022-12-10T04:06:23;-0.97;99.99
64599;SHT31;51008;51.504;11.548;2022-12-10T04:11:25;-0.94;99.99
64599;SHT31;51008;51.504;11.548;2022-12-10T04:16:27;-0.94;99.99
64599;SHT31;51008;51.504;11.548;2022-12-10T04:21:30;-0.94;99.99
64599;SHT31;51008;51.504;11.548;2022-12-10T04:26:31;-0.97;99.99
64599;SHT31;51008;51.504;11.548;2022-12-10T04:31:32;-0.97;99.99
64599;SHT31;51008;51.504;11.548;2022-12-10T04:36:33;-0.97;99.99
64599;SHT31;51008;51.504;11.548;2022-12-10T04:41:34;-1.01;99.99
64599;SHT31;51008;51.504;11.548;2022-12-10T04:46:35;-1.00;99.99
64599;SHT31;51008;51.504;11.548;2022-12-10T04:51:37;-1.05;99.99
64599;SHT31;51008;51.504;11.548;2022-12-10T04:56:38;-1.07;99.99
64599;SHT31;51008;51.504;11.548;2022-12-10T05:01:39;-1.12;99.99
64599;SHT31;51008;51.504;11.548;2022-12-10T05:06:41;-1.09;99.99
64599;SHT31;51008;51.504;11.548;2022-12-10T05:11:43;-1.02;99.99
64599;SHT31;51008;51.504;11.548;2022-12-10T05:16:44;-1.11;99.99
64599;SHT31;51008;51.504;11.548;2022-12-10T05:21:45;-1.22;99.99
64599;SHT31;51008;51.504;11.548;2022-12-10T05:26:46;-1.24;99.99
64599;SHT31;51008;51.504;11.548;2022-12-10T05:31:47;-1.29;99.99
64599;SHT31;51008;51.504;11.548;2022-12-10T05:36:48;-1.35;99.99
64599;SHT31;51008;51.504;11.548;2022-12-10T05:41:49;-1.36;99.99
64599;SHT31;51008;51.504;11.548;2022-12-10T05:46:51;-1.40;99.99
64599;SHT31;51008;51.504;11.548;2022-12-10T05:51:54;-1.39;99.99
64599;SHT31;51008;51.504;11.548;2022-12-10T05:56:55;-1.39;99.99
64599;SHT31;51008;51.504;11.548;2022-12-10T06:01:56;-1.34;99.99
64599;SHT31;51008;51.504;11.548;2022-12-10T06:06:57;-1.35;99.99
64599;SHT31;51008;51.504;11.548;2022-12-10T06:11:58;-1.38;99.99
64599;SHT31;51008;51.504;11.548;2022-12-10T06:16:59;-1.38;99.99
64599;SHT31;51008;51.504;11.548;2022-12-10T06:22:00;-1.32;99.99
64599;SHT31;51008;51.504;11.548;2022-12-10T06:27:01;-1.40;99.99
64599;SHT31;51008;51.504;11.548;2022-12-10T06:32:02;-1.38;99.99
64599;SHT31;51008;51.504;11.548;2022-12-10T06:37:03;-1.42;99.99
64599;SHT31;51008;51.504;11.548;2022-12-10T06:42:04;-1.43;99.99
64599;SHT31;51008;51.504;11.548;2022-12-10T06:47:05;-1.47;99.99
64599;SHT31;51008;51.504;11.548;2022-12-10T06:52:07;-1.50;99.99
64599;SHT31;51008;51.504;11.548;2022-12-10T06:57:08;-1.55;99.99
64599;SHT31;51008;51.504;11.548;2022-12-10T07:02:09;-1.53;99.99
64599;SHT31;51008;51.504;11.548;2022-12-10T07:07:10;-1.52;99.99
64599;SHT31;51008;51.504;11.548;2022-12-10T07:12:11;-1.47;99.99
64599;SHT31;51008;51.504;11.548;2022-12-10T07:17:12;-1.49;99.99
64599;SHT31;51008;51.504;11.548;2022-12-10T07:22:13;-1.49;99.99
64599;SHT31;51008;51.504;11.548;2022-12-10T07:27:14;-1.45;99.99
64599;SHT31;51008;51.504;11.548;2022-12-10T07:32:16;-1.46;99.99
64599;SHT31;51008;51.504;11.548;2022-12-10T07:37:17;-1.43;99.98
64599;SHT31;51008;51.504;11.548;2022-12-10T07:42:18;-1.40;99.79
64599;SHT31;51008;51.504;11.548;2022-12-10T07:47:19;-1.40;99.54
64599;SHT31;51008;51.504;11.548;2022-12-10T07:52:20;-1.34;99.57
64599;SHT31;51008;51.504;11.548;2022-12-10T07:57:21;-1.35;99.48
64599;SHT31;51008;51.504;11.548;2022-12-10T08:02:22;-1.25;99.40
64599;SHT31;51008;51.504;11.548;2022-12-10T08:07:23;-1.12;99.38
64599;SHT31;51008;51.504;11.548;2022-12-10T08:12:24;-1.02;99.49
64599;SHT31;51008;51.504;11.548;2022-12-10T08:17:25;-0.94;99.06
64599;SHT31;51008;51.504;11.548;2022-12-10T08:22:26;-0.87;98.85
64599;SHT31;51008;51.504;11.548;2022-12-10T08:27:28;-0.80;98.45
64599;SHT31;51008;51.504;11.548;2022-12-10T08:32:29;-0.77;98.16
64599;SHT31;51008;51.504;11.548;2022-12-10T08:37:29;-0.79;98.07
64599;SHT31;51008;51.504;11.548;2022-12-10T08:42:30;-0.70;97.58
64599;SHT31;51008;51.504;11.548;2022-12-10T08:47:31;-0.62;97.26
64599;SHT31;51008;51.504;11.548;2022-12-10T08:52:32;-0.49;97.13
64599;SHT31;51008;51.504;11.548;2022-12-10T08:57:34;-0.50;97.19
64599;SHT31;51008;51.504;11.548;2022-12-10T09:02:35;-0.46;97.10
64599;SHT31;51008;51.504;11.548;2022-12-10T09:07:36;-0.46;97.20
64599;SHT31;51008;51.504;11.548;2022-12-10T09:12:37;-0.45;97.00
64599;SHT31;51008;51.504;11.548;2022-12-10T09:17:38;-0.48;96.87
64599;SHT31;51008;51.504;11.548;2022-12-10T09:22:39;-0.53;96.73
64599;SHT31;51008;51.504;11.548;2022-12-10T09:27:40;-0.55;96.72
64599;SHT31;51008;51.504;11.548;2022-12-10T09:32:41;-0.42;96.91
64599;SHT31;51008;51.504;11.548;2022-12-10T09:37:42;-0.35;96.79
64599;SHT31;51008;51.504;11.548;2022-12-10T09:42:56;-0.33;96.26
64599;SHT31;51008;51.504;11.548;2022-12-10T09:48:20;-0.28;96.05
64599;SHT31;51008;51.504;11.548;2022-12-10T09:53:24;-0.35;95.63
64599;SHT31;51008;51.504;11.548;2022-12-10T09:58:27;-0.38;96.00
64599;SHT31;51008;51.504;11.548;2022-12-10T10:03:32;-0.46;95.76
64599;SHT31;51008;51.504;11.548;2022-12-10T10:08:55;-0.46;95.70
64599;SHT31;51008;51.504;11.548;2022-12-10T10:14:01;-0.45;95.87
64599;SHT31;51008;51.504;11.548;2022-12-10T10:19:11;-0.39;96.01
64599;SHT31;51008;51.504;11.548;2022-12-10T10:24:20;-0.35;96.12
64599;SHT31;51008;51.504;11.548;2022-12-10T10:29:22;-0.25;95.95
64599;SHT31;51008;51.504;11.548;2022-12-10T10:34:23;-0.05;96.00
64599;SHT31;51008;51.504;11.548;2022-12-10T10:39:30;0.10;95.84
64599;SHT31;51008;51.504;11.548;2022-12-10T10:44:36;0.27;95.10
64599;SHT31;51008;51.504;11.548;2022-12-10T10:49:43;0.37;94.88
64599;SHT31;51008;51.504;11.548;2022-12-10T10:54:45;0.41;94.47
64599;SHT31;51008;51.504;11.548;2022-12-10T10:59:47;0.45;94.41
64599;SHT31;51008;51.504;11.548;2022-12-10T11:04:51;0.38;94.01
64599;SHT31;51008;51.504;11.548;2022-12-10T11:09:54;0.45;93.93
64599;SHT31;51008;51.504;11.548;2022-12-10T11:14:55;0.54;93.84
64599;SHT31;51008;51.504;11.548;2022-12-10T11:20:12;0.61;94.13
64599;SHT31;51008;51.504;11.548;2022-12-10T11:25:16;0.62;93.95
64599;SHT31;51008;51.504;11.548;2022-12-10T11:30:23;0.47;93.68
64599;SHT31;51008;51.504;11.548;2022-12-10T11:35:53;0.36;94.00
64599;SHT31;51008;51.504;11.548;2022-12-10T11:51:57;0.58;93.96
64599;SHT31;51008;51.504;11.548;2022-12-10T12:13:40;0.73;93.44
64599;SHT31;51008;51.504;11.548;2022-12-10T12:19:09;0.77;93.61
64599;SHT31;51008;51.504;11.548;2022-12-10T12:24:17;0.62;93.43
64599;SHT31;51008;51.504;11.548;2022-12-10T12:29:33;0.58;93.92
64599;SHT31;51008;51.504;11.548;2022-12-10T12:34:46;0.61;93.56
64599;SHT31;51008;51.504;11.548;2022-12-10T12:40:13;0.55;93.90
64599;SHT31;51008;51.504;11.548;2022-12-10T12:45:28;0.40;93.97
64599;SHT31;51008;51.504;11.548;2022-12-10T12:56:32;0.10;94.40
64599;SHT31;51008;51.504;11.548;2022-12-10T13:01:58;0.17;95.20
64599;SHT31;51008;51.504;11.548;2022-12-10T13:17:36;0.27;94.49
64599;SHT31;51008;51.504;11.548;2022-12-10T13:27:54;0.04;94.35
64599;SHT31;51008;51.504;11.548;2022-12-10T13:33:18;0.04;94.73
64599;SHT31;51008;51.504;11.548;2022-12-10T13:38:22;-0.07;95.09
64599;SHT31;51008;51.504;11.548;2022-12-10T13:48:34;-0.31;94.96
64599;SHT31;51008;51.504;11.548;2022-12-10T14:05:10;-0.45;95.70
64599;SHT31;51008;51.504;11.548;2022-12-10T14:10:15;-0.36;95.95
64599;SHT31;51008;51.504;11.548;2022-12-10T14:15:20;-0.38;95.93
64599;SHT31;51008;51.504;11.548;2022-12-10T14:20:23;-0.48;96.13
64599;SHT31;51008;51.504;11.548;2022-12-10T14:25:25;-0.49;95.83
64599;SHT31;51008;51.504;11.548;2022-12-10T14:30:27;-0.53;96.27
64599;SHT31;51008;51.504;11.548;2022-12-10T14:35:29;-0.53;96.54
64599;SHT31;51008;51.504;11.548;2022-12-10T14:40:39;-0.53;96.75
64599;SHT31;51008;51.504;11.548;2022-12-10T14:46:11;-0.53;96.79
64599;SHT31;51008;51.504;11.548;2022-12-10T14:51:18;-0.56;96.83
64599;SHT31;51008;51.504;11.548;2022-12-10T14:56:38;-0.56;96.69
64599;SHT31;51008;51.504;11.548;2022-12-10T15:01:47;-0.76;96.50
64599;SHT31;51008;51.504;11.548;2022-12-10T15:06:50;-0.79;96.96
64599;SHT31;51008;51.504;11.548;2022-12-10T15:11:56;-0.80;96.94
64599;SHT31;51008;51.504;11.548;2022-12-10T15:16:58;-0.83;96.85
64599;SHT31;51008;51.504;11.548;2022-12-10T15:22:18;-0.88;96.94
64599;SHT31;51008;51.504;11.548;2022-12-10T15:27:21;-0.95;97.20
64599;SHT31;51008;51.504;11.548;2022-12-10T15:32:27;-0.90;97.29
64599;SHT31;51008;51.504;11.548;2022-12-10T15:37:34;-0.90;97.21
64599;SHT31;51008;51.504;11.548;2022-12-10T15:42:37;-0.88;97.21
64599;SHT31;51008;51.504;11.548;2022-12-10T15:47:39;-0.88;97.47
64599;SHT31;51008;51.504;11.548;2022-12-10T15:52:40;-0.90;97.30
64599;SHT31;51008;51.504;11.548;2022-12-10T15:57:42;-0.98;97.42
64599;SHT31;51008;51.504;11.548;2022-12-10T16:02:49;-1.07;97.70
64599;SHT31;51008;51.504;11.548;2022-12-10T16:07:53;-1.08;97.68
64599;SHT31;51008;51.504;11.548;2022-12-10T16:17:58;-1.24;97.74
64599;SHT31;51008;51.504;11.548;2022-12-10T16:23:00;-1.24;97.95
64599;SHT31;51008;51.504;11.548;2022-12-10T16:28:02;-1.25;98.01
64599;SHT31;51008;51.504;11.548;2022-12-10T16:33:04;-1.24;97.98
64599;SHT31;51008;51.504;11.548;2022-12-10T16:38:05;-1.25;98.19
64599;SHT31;51008;51.504;11.548;2022-12-10T16:43:11;-1.28;98.29
64599;SHT31;51008;51.504;11.548;2022-12-10T16:48:15;-1.31;98.28
64599;SHT31;51008;51.504;11.548;2022-12-10T16:53:26;-1.35;98.50
64599;SHT31;51008;51.504;11.548;2022-12-10T16:58:27;-1.36;98.21
64599;SHT31;51008;51.504;11.548;2022-12-10T17:03:28;-1.36;97.79
64599;SHT31;51008;51.504;11.548;2022-12-10T17:08:29;-1.32;98.16
64599;SHT31;51008;51.504;11.548;2022-12-10T17:13:31;-1.31;98.24
64599;SHT31;51008;51.504;11.548;2022-12-10T17:18:34;-1.31;98.16
64599;SHT31;51008;51.504;11.548;2022-12-10T17:23:35;-1.29;98.41
64599;SHT31;51008;51.504;11.548;2022-12-10T17:28:36;-1.31;98.48
64599;SHT31;51008;51.504;11.548;2022-12-10T17:33:37;-1.39;98.22
64599;SHT31;51008;51.504;11.548;2022-12-10T17:38:38;-1.53;98.32
64599;SHT31;51008;51.504;11.548;2022-12-10T17:43:39;-1.57;98.29
64599;SHT31;51008;51.504;11.548;2022-12-10T17:48:40;-1.56;98.19
64599;SHT31;51008;51.504;11.548;2022-12-10T17:53:41;-1.70;97.67
64599;SHT31;51008;51.504;11.548;2022-12-10T17:58:42;-1.77;97.59
64599;SHT31;51008;51.504;11.548;2022-12-10T18:03:44;-1.81;97.20
64599;SHT31;51008;51.504;11.548;2022-12-10T18:08:46;-1.84;97.16
64599;SHT31;51008;51.504;11.548;2022-12-10T18:13:48;-1.91;96.96
64599;SHT31;51008;51.504;11.548;2022-12-10T18:18:49;-1.97;96.50
64599;SHT31;51008;51.504;11.548;2022-12-10T18:23:50;-1.88;96.60
64599;SHT31;51008;51.504;11.548;2022-12-10T18:28:56;-1.77;96.61
64599;SHT31;51008;51.504;11.548;2022-12-10T18:34:04;-1.71;96.03
64599;SHT31;51008;51.504;11.548;2022-12-10T18:44:16;-1.81;95.29
64599;SHT31;51008;51.504;11.548;2022-12-10T18:49:18;-1.91;95.24
64599;SHT31;51008;51.504;11.548;2022-12-10T18:54:19;-1.88;95.43
64599;SHT31;51008;51.504;11.548;2022-12-10T18:59:23;-1.95;95.49
64599;SHT31;51008;51.504;11.548;2022-12-10T19:04:24;-1.90;95.64
64599;SHT31;51008;51.504;11.548;2022-12-10T19:09:25;-1.84;95.75
64599;SHT31;51008;51.504;11.548;2022-12-10T19:14:26;-1.84;95.72
64599;SHT31;51008;51.504;11.548;2022-12-10T19:19:27;-1.84;95.62
64599;SHT31;51008;51.504;11.548;2022-12-10T19:24:29;-1.90;95.50
64599;SHT31;51008;51.504;11.548;2022-12-10T19:29:30;-1.85;95.69
64599;SHT31;51008;51.504;11.548;2022-12-10T19:34:31;-1.85;95.54
64599;SHT31;51008;51.504;11.548;2022-12-10T19:39:32;-1.88;95.74
64599;SHT31;51008;51.504;11.548;2022-12-10T19:44:33;-1.87;95.80
64599;SHT31;51008;51.504;11.548;2022-12-10T19:49:34;-1.91;95.95
64599;SHT31;51008;51.504;11.548;2022-12-10T19:54:35;-1.90;96.13
64599;SHT31;51008;51.504;11.548;2022-12-10T19:59:36;-1.95;96.30
64599;SHT31;51008;51.504;11.548;2022-12-10T20:04:37;-2.01;96.45
64599;SHT31;51008;51.504;11.548;2022-12-10T20:09:38;-2.03;96.60
64599;SHT31;51008;51.504;11.548;2022-12-10T20:14:39;-2.02;96.69
64599;SHT31;51008;51.504;11.548;2022-12-10T20:19:40;-2.09;96.37
64599;SHT31;51008;51.504;11.548;2022-12-10T20:24:41;-2.06;96.44
64599;SHT31;51008;51.504;11.548;2022-12-10T20:29:43;-2.02;96.40
64599;SHT31;51008;51.504;11.548;2022-12-10T20:34:44;-2.03;96.39
64599;SHT31;51008;51.504;11.548;2022-12-10T20:39:45;-2.03;96.27
64599;SHT31;51008;51.504;11.548;2022-12-10T20:44:46;-2.01;96.49
64599;SHT31;51008;51.504;11.548;2022-12-10T20:49:47;-1.99;96.52
64599;SHT31;51008;51.504;11.548;2022-12-10T20:54:48;-2.08;96.42
64599;SHT31;51008;51.504;11.548;2022-12-10T20:59:49;-2.06;96.32
64599;SHT31;51008;51.504;11.548;2022-12-10T21:04:50;-2.05;96.43
64599;SHT31;51008;51.504;11.548;2022-12-10T21:09:51;-2.08;96.72
64599;SHT31;51008;51.504;11.548;2022-12-10T21:14:52;-2.03;96.79
64599;SHT31;51008;51.504;11.548;2022-12-10T21:19:53;-1.99;96.75
64599;SHT31;51008;51.504;11.548;2022-12-10T21:24:54;-1.97;96.66
64599;SHT31;51008;51.504;11.548;2022-12-10T21:29:55;-2.02;96.54
64599;SHT31;51008;51.504;11.548;2022-12-10T21:34:56;-1.99;96.57
64599;SHT31;51008;51.504;11.548;2022-12-10T21:39:57;-1.91;96.62
64599;SHT31;51008;51.504;11.548;2022-12-10T21:44:58;-1.87;96.80
64599;SHT31;51008;51.504;11.548;2022-12-10T21:49:59;-1.88;96.50
64599;SHT31;51008;51.504;11.548;2022-12-10T21:55:00;-1.87;96.28
64599;SHT31;51008;51.504;11.548;2022-12-10T22:00:02;-1.88;96.15
64599;SHT31;51008;51.504;11.548;2022-12-10T22:05:13;-1.87;96.17
64599;SHT31;51008;51.504;11.548;2022-12-10T22:10:14;-1.90;95.84
64599;SHT31;51008;51.504;11.548;2022-12-10T22:15:15;-1.90;95.91
64599;SHT31;51008;51.504;11.548;2022-12-10T22:20:16;-1.87;96.15
64599;SHT31;51008;51.504;11.548;2022-12-10T22:25:17;-1.87;96.19
64599;SHT31;51008;51.504;11.548;2022-12-10T22:30:19;-1.82;96.22
64599;SHT31;51008;51.504;11.548;2022-12-10T22:35:20;-1.85;96.31
64599;SHT31;51008;51.504;11.548;2022-12-10T22:40:20;-1.90;96.37
64599;SHT31;51008;51.504;11.548;2022-12-10T22:45:21;-1.88;96.46
64599;SHT31;51008;51.504;11.548;2022-12-10T22:50:22;-1.88;96.29
64599;SHT31;51008;51.504;11.548;2022-12-10T22:55:24;-1.94;96.39
64599;SHT31;51008;51.504;11.548;2022-12-10T23:00:25;-1.92;96.51
64599;SHT31;51008;51.504;11.548;2022-12-10T23:05:26;-1.95;96.35
64599;SHT31;51008;51.504;11.548;2022-12-10T23:10:27;-1.97;96.40
64599;SHT31;51008;51.504;11.548;2022-12-10T23:15:28;-1.98;96.41
64599;SHT31;51008;51.504;11.548;2022-12-10T23:20:30;-2.02;96.58
64599;SHT31;51008;51.504;11.548;2022-12-10T23:25:32;-1.99;96.48
64599;SHT31;51008;51.504;11.548;2022-12-10T23:30:33;-1.99;96.54
64599;SHT31;51008;51.504;11.548;2022-12-10T23:35:34;-2.01;96.49
64599;SHT31;51008;51.504;11.548;2022-12-10T23:40:41;-2.02;96.43
64599;SHT31;51008;51.504;11.548;2022-12-10T23:45:43;-2.05;96.48
64599;SHT31;51008;51.504;11.548;2022-12-10T23:50:44;-2.10;96.65
64599;SHT31;51008;51.504;11.548;2022-12-10T23:55:45;-2.13;96.75
